sensor_id;sensor_type;location;lat;lon;timestamp;temperature;humidity
39665;DHT22;26679;50.872;4.332;2023-04-01T00:00:44;10.00;99.90
39665;DHT22;26679;50.872;4.332;2023-04-01T00:03:09;10.00;99.90
39665;DHT22;26679;50.872;4.332;2023-04-01T00:05:35;10.00;99.90
39665;DHT22;26679;50.872;4.332;2023-04-01T00:08:00;10.10;99.90
39665;DHT22;26679;50.872;4.332;2023-04-01T00:10:26;10.00;99.90
39665;DHT22;26679;50.872;4.332;2023-04-01T00:12:51;9.90;99.90
39665;DHT22;26679;50.872;4.332;2023-04-01T00:15:17;9.90;99.90
39665;DHT22;26679;50.872;4.332;2023-04-01T00:17:42;10.10;99.90
39665;DHT22;26679;50.872;4.332;2023-04-01T00:20:08;10.00;99.90
39665;DHT22;26679;50.872;4.332;2023-04-01T00:22:36;10.00;99.90
39665;DHT22;26679;50.872;4.332;2023-04-01T00:25:02;10.00;99.90
39665;DHT22;26679;50.872;4.332;2023-04-01T00:27:27;10.00;99.90
39665;DHT22;26679;50.872;4.332;2023-04-01T00:29:53;10.00;99.90
39665;DHT22;26679;50.872;4.332;2023-04-01T00:32:18;10.00;99.90
39665;DHT22;26679;50.872;4.332;2023-04-01T00:34:44;10.00;99.90
39665;DHT22;26679;50.872;4.332;2023-04-01T00:37:09;10.00;99.90
39665;DHT22;26679;50.872;4.332;2023-04-01T00:39:35;10.00;99.90
39665;DHT22;26679;50.872;4.332;2023-04-01T00:42:02;10.00;99.90
39665;DHT22;26679;50.872;4.332;2023-04-01T00:44:31;10.00;99.90
39665;DHT22;26679;50.872;4.332;2023-04-01T00:46:58;10.00;99.90
39665;DHT22;26679;50.872;4.332;2023-04-01T00:49:25;10.00;99.90
39665;DHT22;26679;50.872;4.332;2023-04-01T00:51:53;10.00;99.90
39665;DHT22;26679;50.872;4.332;2023-04-01T00:54:21;9.90;99.90
39665;DHT22;26679;50.872;4.332;2023-04-01T00:59:31;10.00;99.90
39665;DHT22;26679;50.872;4.332;2023-04-01T01:01:58;10.00;99.90
39665;DHT22;26679;50.872;4.332;2023-04-01T01:07:01;10.00;99.90
39665;DHT22;26679;50.872;4.332;2023-04-01T01:12:02;10.10;99.90
39665;DHT22;26679;50.872;4.332;2023-04-01T01:19:41;10.10;99.90
39665;DHT22;26679;50.872;4.332;2023-04-01T01:27:18;10.20;99.90
39665;DHT22;26679;50.872;4.332;2023-04-01T01:37:24;10.10;99.90
39665;DHT22;26679;50.872;4.332;2023-04-01T01:39:55;10.20;99.90
39665;DHT22;26679;50.872;4.332;2023-04-01T01:42:22;10.20;99.90
39665;DHT22;26679;50.872;4.332;2023-04-01T01:44:49;10.20;99.90
39665;DHT22;26679;50.872;4.332;2023-04-01T01:47:15;10.10;99.90
39665;DHT22;26679;50.872;4.332;2023-04-01T01:49:42;10.20;99.90
39665;DHT22;26679;50.872;4.332;2023-04-01T01:52:08;10.10;99.90
39665;DHT22;26679;50.872;4.332;2023-04-01T01:54:34;10.10;99.90
39665;DHT22;26679;50.872;4.332;2023-04-01T01:57:04;10.10;99.90
39665;DHT22;26679;50.872;4.332;2023-04-01T01:59:31;10.10;99.90
39665;DHT22;26679;50.872;4.332;2023-04-01T02:01:58;10.00;99.90
39665;DHT22;26679;50.872;4.332;2023-04-01T02:04:24;10.00;99.90
39665;DHT22;26679;50.872;4.332;2023-04-01T02:06:58;10.00;99.90
39665;DHT22;26679;50.872;4.332;2023-04-01T02:09:25;9.90;99.90
39665;DHT22;26679;50.872;4.332;2023-04-01T02:11:52;10.00;99.90
39665;DHT22;26679;50.872;4.332;2023-04-01T02:14:21;10.00;99.90
39665;DHT22;26679;50.872;4.332;2023-04-01T02:16:49;10.00;99.90
39665;DHT22;26679;50.872;4.332;2023-04-01T02:19:17;9.90;99.90
39665;DHT22;26679;50.872;4.332;2023-04-01T02:21:51;10.00;99.90
39665;DHT22;26679;50.872;4.332;2023-04-01T02:24:18;10.10;99.90
39665;DHT22;26679;50.872;4.332;2023-04-01T02:26:46;9.90;99.90
39665;DHT22;26679;50.872;4.332;2023-04-01T02:29:11;9.90;99.90
39665;DHT22;26679;50.872;4.332;2023-04-01T02:31:37;9.90;99.90
39665;DHT22;26679;50.872;4.332;2023-04-01T02:34:03;10.00;99.90
39665;DHT22;26679;50.872;4.332;2023-04-01T02:36:29;9.90;99.90
39665;DHT22;26679;50.872;4.332;2023-04-01T02:38:55;10.00;99.90
39665;DHT22;26679;50.872;4.332;2023-04-01T02:41:21;9.90;99.90
39665;DHT22;26679;50.872;4.332;2023-04-01T02:43:47;9.90;99.90
39665;DHT22;26679;50.872;4.332;2023-04-01T02:46:12;9.90;99.90
39665;DHT22;26679;50.872;4.332;2023-04-01T02:48:38;9.90;99.90
39665;DHT22;26679;50.872;4.332;2023-04-01T02:51:03;9.80;99.90
39665;DHT22;26679;50.872;4.332;2023-04-01T02:53:29;10.00;99.90
39665;DHT22;26679;50.872;4.332;2023-04-01T02:55:54;10.00;99.90
39665;DHT22;26679;50.872;4.332;2023-04-01T02:58:21;9.80;99.90
39665;DHT22;26679;50.872;4.332;2023-04-01T03:00:46;10.00;99.90
39665;DHT22;26679;50.872;4.332;2023-04-01T03:03:12;9.90;99.90
39665;DHT22;26679;50.872;4.332;2023-04-01T03:05:38;10.00;99.90
39665;DHT22;26679;50.872;4.332;2023-04-01T03:08:04;10.00;99.90
39665;DHT22;26679;50.872;4.332;2023-04-01T03:10:30;9.90;99.90
39665;DHT22;26679;50.872;4.332;2023-04-01T03:12:56;9.90;99.90
39665;DHT22;26679;50.872;4.332;2023-04-01T03:15:21;9.90;99.90
39665;DHT22;26679;50.872;4.332;2023-04-01T03:17:47;9.90;99.90
39665;DHT22;26679;50.872;4.332;2023-04-01T03:20:12;9.90;99.90
39665;DHT22;26679;50.872;4.332;2023-04-01T03:22:38;9.90;99.90
39665;DHT22;26679;50.872;4.332;2023-04-01T03:25:05;9.90;99.90
39665;DHT22;26679;50.872;4.332;2023-04-01T03:27:30;9.90;99.90
39665;DHT22;26679;50.872;4.332;2023-04-01T03:29:56;9.90;99.90
39665;DHT22;26679;50.872;4.332;2023-04-01T03:32:21;9.80;99.90
39665;DHT22;26679;50.872;4.332;2023-04-01T03:34:47;9.70;99.90
39665;DHT22;26679;50.872;4.332;2023-04-01T03:37:12;9.80;99.90
39665;DHT22;26679;50.872;4.332;2023-04-01T03:39:39;9.80;99.90
39665;DHT22;26679;50.872;4.332;2023-04-01T03:47:07;9.70;99.90
39665;DHT22;26679;50.872;4.332;2023-04-01T03:49:34;9.70;99.90
39665;DHT22;26679;50.872;4.332;2023-04-01T03:52:00;9.70;99.90
39665;DHT22;26679;50.872;4.332;2023-04-01T03:54:25;9.70;99.90
39665;DHT22;26679;50.872;4.332;2023-04-01T03:56:51;9.90;99.90
39665;DHT22;26679;50.872;4.332;2023-04-01T03:59:16;9.50;99.90
39665;DHT22;26679;50.872;4.332;2023-04-01T04:01:42;9.70;99.90
39665;DHT22;26679;50.872;4.332;2023-04-01T04:04:07;9.70;99.90
39665;DHT22;26679;50.872;4.332;2023-04-01T04:06:35;9.70;99.90
39665;DHT22;26679;50.872;4.332;2023-04-01T04:09:01;9.70;99.90
39665;DHT22;26679;50.872;4.332;2023-04-01T04:11:27;9.80;99.90
39665;DHT22;26679;50.872;4.332;2023-04-01T04:13:52;9.80;99.90
39665;DHT22;26679;50.872;4.332;2023-04-01T04:16:18;9.80;99.90
39665;DHT22;26679;50.872;4.332;2023-04-01T04:18:43;9.80;99.90
39665;DHT22;26679;50.872;4.332;2023-04-01T04:21:13;9.90;99.90
39665;DHT22;26679;50.872;4.332;2023-04-01T04:23:39;9.90;99.90
39665;DHT22;26679;50.872;4.332;2023-04-01T04:26:09;10.00;99.90
39665;DHT22;26679;50.872;4.332;2023-04-01T04:28:35;9.80;99.90
39665;DHT22;26679;50.872;4.332;2023-04-01T04:31:00;9.80;99.90
39665;DHT22;26679;50.872;4.332;2023-04-01T04:33:26;9.90;99.90
39665;DHT22;26679;50.872;4.332;2023-04-01T04:35:54;9.80;99.90
39665;DHT22;26679;50.872;4.332;2023-04-01T04:38:19;9.80;99.90
39665;DHT22;26679;50.872;4.332;2023-04-01T04:40:45;9.80;99.90
39665;DHT22;26679;50.872;4.332;2023-04-01T04:43:11;9.80;99.90
39665;DHT22;26679;50.872;4.332;2023-04-01T04:45:37;9.80;99.90
39665;DHT22;26679;50.872;4.332;2023-04-01T04:48:03;9.70;99.90
39665;DHT22;26679;50.872;4.332;2023-04-01T04:50:28;9.80;99.90
39665;DHT22;26679;50.872;4.332;2023-04-01T04:52:54;9.90;99.90
39665;DHT22;26679;50.872;4.332;2023-04-01T04:55:20;9.80;99.90
39665;DHT22;26679;50.872;4.332;2023-04-01T04:57:45;9.80;99.90
39665;DHT22;26679;50.872;4.332;2023-04-01T05:00:11;9.80;99.90
39665;DHT22;26679;50.872;4.332;2023-04-01T05:02:37;9.80;99.90
39665;DHT22;26679;50.872;4.332;2023-04-01T05:05:02;9.80;99.90
39665;DHT22;26679;50.872;4.332;2023-04-01T05:07:28;9.90;99.90
39665;DHT22;26679;50.872;4.332;2023-04-01T05:09:53;9.90;99.90
39665;DHT22;26679;50.872;4.332;2023-04-01T05:12:19;9.90;99.90
39665;DHT22;26679;50.872;4.332;2023-04-01T05:14:44;10.00;99.90
39665;DHT22;26679;50.872;4.332;2023-04-01T05:17:11;9.90;99.90
39665;DHT22;26679;50.872;4.332;2023-04-01T05:19:36;9.80;99.90
39665;DHT22;26679;50.872;4.332;2023-04-01T05:22:02;9.80;99.90
39665;DHT22;26679;50.872;4.332;2023-04-01T05:24:28;9.70;99.90
39665;DHT22;26679;50.872;4.332;2023-04-01T05:26:53;9.80;99.90
39665;DHT22;26679;50.872;4.332;2023-04-01T05:29:18;9.80;99.90
39665;DHT22;26679;50.872;4.332;2023-04-01T05:31:44;9.70;99.90
39665;DHT22;26679;50.872;4.332;2023-04-01T05:34:10;9.70;99.90
39665;DHT22;26679;50.872;4.332;2023-04-01T05:36:35;9.60;99.90
39665;DHT22;26679;50.872;4.332;2023-04-01T05:39:01;9.60;99.90
39665;DHT22;26679;50.872;4.332;2023-04-01T05:41:26;9.70;99.90
39665;DHT22;26679;50.872;4.332;2023-04-01T05:43:52;9.80;99.90
39665;DHT22;26679;50.872;4.332;2023-04-01T05:46:17;9.90;99.90
39665;DHT22;26679;50.872;4.332;2023-04-01T05:48:43;9.80;99.90
39665;DHT22;26679;50.872;4.332;2023-04-01T05:51:15;9.80;99.90
39665;DHT22;26679;50.872;4.332;2023-04-01T05:53:41;9.70;99.90
39665;DHT22;26679;50.872;4.332;2023-04-01T05:56:06;9.70;99.90
39665;DHT22;26679;50.872;4.332;2023-04-01T05:58:35;9.70;99.90
39665;DHT22;26679;50.872;4.332;2023-04-01T06:01:01;9.80;99.90
39665;DHT22;26679;50.872;4.332;2023-04-01T06:03:27;9.80;99.90
39665;DHT22;26679;50.872;4.332;2023-04-01T06:05:52;9.80;99.90
39665;DHT22;26679;50.872;4.332;2023-04-01T06:08:18;9.80;99.90
39665;DHT22;26679;50.872;4.332;2023-04-01T06:16:01;9.70;99.90
39665;DHT22;26679;50.872;4.332;2023-04-01T06:18:36;9.80;99.90
39665;DHT22;26679;50.872;4.332;2023-04-01T06:42:06;9.70;99.90
39665;DHT22;26679;50.872;4.332;2023-04-01T06:54:48;9.80;99.90
39665;DHT22;26679;50.872;4.332;2023-04-01T06:59:51;9.80;99.90
39665;DHT22;26679;50.872;4.332;2023-04-01T07:04:43;9.70;99.90
39665;DHT22;26679;50.872;4.332;2023-04-01T07:09:48;9.70;99.90
39665;DHT22;26679;50.872;4.332;2023-04-01T07:12:17;9.50;99.90
39665;DHT22;26679;50.872;4.332;2023-04-01T07:14:45;9.60;99.90
39665;DHT22;26679;50.872;4.332;2023-04-01T07:17:17;9.70;99.90
39665;DHT22;26679;50.872;4.332;2023-04-01T07:19:51;9.80;99.90
39665;DHT22;26679;50.872;4.332;2023-04-01T07:22:22;9.70;99.90
39665;DHT22;26679;50.872;4.332;2023-04-01T07:24:48;9.80;99.90
39665;DHT22;26679;50.872;4.332;2023-04-01T07:27:14;9.80;99.90
39665;DHT22;26679;50.872;4.332;2023-04-01T07:29:40;9.70;99.90
39665;DHT22;26679;50.872;4.332;2023-04-01T07:37:08;10.00;99.90
39665;DHT22;26679;50.872;4.332;2023-04-01T07:42:17;10.00;99.90
39665;DHT22;26679;50.872;4.332;2023-04-01T07:47:25;10.00;99.90
39665;DHT22;26679;50.872;4.332;2023-04-01T07:52:40;10.00;99.90
39665;DHT22;26679;50.872;4.332;2023-04-01T08:00:24;10.00;99.90
39665;DHT22;26679;50.872;4.332;2023-04-01T08:08:01;10.00;99.90
39665;DHT22;26679;50.872;4.332;2023-04-01T08:20:47;10.20;99.90
39665;DHT22;26679;50.872;4.332;2023-04-01T08:23:14;10.20;99.90
39665;DHT22;26679;50.872;4.332;2023-04-01T08:26:18;10.20;99.90
39665;DHT22;26679;50.872;4.332;2023-04-01T08:31:12;10.20;99.90
39665;DHT22;26679;50.872;4.332;2023-04-01T08:33:39;10.20;99.90
39665;DHT22;26679;50.872;4.332;2023-04-01T08:36:10;10.20;99.90
39665;DHT22;26679;50.872;4.332;2023-04-01T08:38:41;10.20;99.90
39665;DHT22;26679;50.872;4.332;2023-04-01T09:22:25;10.20;99.90
39665;DHT22;26679;50.872;4.332;2023-04-01T09:38:00;10.30;99.90
39665;DHT22;26679;50.872;4.332;2023-04-01T09:58:32;10.40;99.90
39665;DHT22;26679;50.872;4.332;2023-04-01T10:06:14;10.40;99.90
39665;DHT22;26679;50.872;4.332;2023-04-01T10:08:54;10.60;99.90
39665;DHT22;26679;50.872;4.332;2023-04-01T10:27:11;10.70;99.90
39665;DHT22;26679;50.872;4.332;2023-04-01T10:42:13;11.00;99.90
39665;DHT22;26679;50.872;4.332;2023-04-01T11:13:59;11.00;99.90
39665;DHT22;26679;50.872;4.332;2023-04-01T11:27:05;11.10;99.90
39665;DHT22;26679;50.872;4.332;2023-04-01T11:42:22;11.00;99.90
39665;DHT22;26679;50.872;4.332;2023-04-01T11:44:56;10.80;99.90
39665;DHT22;26679;50.872;4.332;2023-04-01T11:47:28;10.90;99.90
39665;DHT22;26679;50.872;4.332;2023-04-01T12:00:02;10.90;99.90
39665;DHT22;26679;50.872;4.332;2023-04-01T12:02:35;11.00;99.90
39665;DHT22;26679;50.872;4.332;2023-04-01T12:18:23;10.80;99.90
39665;DHT22;26679;50.872;4.332;2023-04-01T12:20:54;10.70;99.90
39665;DHT22;26679;50.872;4.332;2023-04-01T13:01:58;10.90;99.90
39665;DHT22;26679;50.872;4.332;2023-04-01T13:09:50;10.80;99.90
39665;DHT22;26679;50.872;4.332;2023-04-01T13:12:23;10.90;99.90
39665;DHT22;26679;50.872;4.332;2023-04-01T13:17:26;10.70;99.90
39665;DHT22;26679;50.872;4.332;2023-04-01T13:25:04;10.80;99.90
39665;DHT22;26679;50.872;4.332;2023-04-01T13:27:51;10.70;99.90
39665;DHT22;26679;50.872;4.332;2023-04-01T13:40:41;10.90;99.90
39665;DHT22;26679;50.872;4.332;2023-04-01T13:45:46;10.90;99.90
39665;DHT22;26679;50.872;4.332;2023-04-01T13:48:23;10.80;99.90
39665;DHT22;26679;50.872;4.332;2023-04-01T14:00:59;10.80;99.90
39665;DHT22;26679;50.872;4.332;2023-04-01T14:13:35;11.00;99.90
39665;DHT22;26679;50.872;4.332;2023-04-01T14:18:42;11.10;99.90
39665;DHT22;26679;50.872;4.332;2023-04-01T14:21:19;11.20;99.90
39665;DHT22;26679;50.872;4.332;2023-04-01T14:23:52;11.10;99.90
39665;DHT22;26679;50.872;4.332;2023-04-01T14:34:18;10.90;99.90
39665;DHT22;26679;50.872;4.332;2023-04-01T14:50:21;10.70;99.90
39665;DHT22;26679;50.872;4.332;2023-04-01T14:52:27;10.70;99.90
39665;DHT22;26679;50.872;4.332;2023-04-01T14:54:54;10.80;99.90
39665;DHT22;26679;50.872;4.332;2023-04-01T14:57:24;10.70;99.90
39665;DHT22;26679;50.872;4.332;2023-04-01T14:59:54;10.60;99.90
39665;DHT22;26679;50.872;4.332;2023-04-01T15:02:31;10.50;99.90
39665;DHT22;26679;50.872;4.332;2023-04-01T15:05:01;10.50;99.90
39665;DHT22;26679;50.872;4.332;2023-04-01T15:26:01;10.70;99.90
39665;DHT22;26679;50.872;4.332;2023-04-01T15:59:14;10.40;99.90
39665;DHT22;26679;50.872;4.332;2023-04-01T16:21:46;10.00;99.90
39665;DHT22;26679;50.872;4.332;2023-04-01T16:24:24;10.00;99.90
39665;DHT22;26679;50.872;4.332;2023-04-01T16:27:01;10.00;99.90
39665;DHT22;26679;50.872;4.332;2023-04-01T16:29:48;9.90;99.90
39665;DHT22;26679;50.872;4.332;2023-04-01T16:37:29;9.80;99.90
39665;DHT22;26679;50.872;4.332;2023-04-01T16:42:40;9.90;99.90
39665;DHT22;26679;50.872;4.332;2023-04-01T16:47:40;10.10;99.90
39665;DHT22;26679;50.872;4.332;2023-04-01T16:50:14;10.00;99.90
39665;DHT22;26679;50.872;4.332;2023-04-01T16:55:41;10.10;99.90
39665;DHT22;26679;50.872;4.332;2023-04-01T16:58:07;10.00;99.90
39665;DHT22;26679;50.872;4.332;2023-04-01T17:00:41;10.00;99.90
39665;DHT22;26679;50.872;4.332;2023-04-01T17:03:14;10.00;99.90
39665;DHT22;26679;50.872;4.332;2023-04-01T17:10:47;9.90;99.90
39665;DHT22;26679;50.872;4.332;2023-04-01T17:23:34;10.00;99.90
39665;DHT22;26679;50.872;4.332;2023-04-01T17:59:35;10.10;99.90
39665;DHT22;26679;50.872;4.332;2023-04-01T18:22:23;10.00;99.90
39665;DHT22;26679;50.872;4.332;2023-04-01T18:25:34;10.00;99.90
39665;DHT22;26679;50.872;4.332;2023-04-01T18:27:41;10.00;99.90
39665;DHT22;26679;50.872;4.332;2023-04-01T18:30:15;9.90;99.90
39665;DHT22;26679;50.872;4.332;2023-04-01T18:40:41;9.90;99.90
39665;DHT22;26679;50.872;4.332;2023-04-01T18:50:55;9.80;99.90
39665;DHT22;26679;50.872;4.332;2023-04-01T18:53:28;9.80;99.90
39665;DHT22;26679;50.872;4.332;2023-04-01T18:56:02;9.90;99.90
39665;DHT22;26679;50.872;4.332;2023-04-01T18:58:37;10.00;99.90
39665;DHT22;26679;50.872;4.332;2023-04-01T19:01:12;10.00;99.90
39665;DHT22;26679;50.872;4.332;2023-04-01T19:03:46;10.00;99.90
39665;DHT22;26679;50.872;4.332;2023-04-01T19:06:15;10.00;99.90
39665;DHT22;26679;50.872;4.332;2023-04-01T19:08:43;10.00;99.90
39665;DHT22;26679;50.872;4.332;2023-04-01T19:18:55;9.80;99.90
39665;DHT22;26679;50.872;4.332;2023-04-01T19:21:28;9.90;99.90
39665;DHT22;26679;50.872;4.332;2023-04-01T19:24:01;9.90;99.90
39665;DHT22;26679;50.872;4.332;2023-04-01T19:26:31;9.80;99.90
39665;DHT22;26679;50.872;4.332;2023-04-01T19:29:23;9.90;99.90
39665;DHT22;26679;50.872;4.332;2023-04-01T19:42:05;9.80;99.90
39665;DHT22;26679;50.872;4.332;2023-04-01T19:52:20;9.90;99.90
39665;DHT22;26679;50.872;4.332;2023-04-01T20:00:09;9.90;99.90
39665;DHT22;26679;50.872;4.332;2023-04-01T20:03:12;9.80;99.90
39665;DHT22;26679;50.872;4.332;2023-04-01T20:05:33;9.80;99.90
39665;DHT22;26679;50.872;4.332;2023-04-01T20:10:38;9.80;99.90
39665;DHT22;26679;50.872;4.332;2023-04-01T20:15:46;9.80;99.90
39665;DHT22;26679;50.872;4.332;2023-04-01T20:18:14;9.90;99.90
39665;DHT22;26679;50.872;4.332;2023-04-01T20:20:43;9.90;99.90
39665;DHT22;26679;50.872;4.332;2023-04-01T20:23:23;9.80;99.90
39665;DHT22;26679;50.872;4.332;2023-04-01T20:25:58;9.80;99.90
39665;DHT22;26679;50.872;4.332;2023-04-01T20:46:22;9.90;99.90
39665;DHT22;26679;50.872;4.332;2023-04-01T20:51:16;9.90;99.90
39665;DHT22;26679;50.872;4.332;2023-04-01T21:09:34;9.90;99.90
39665;DHT22;26679;50.872;4.332;2023-04-01T21:40:32;10.00;99.90
39665;DHT22;26679;50.872;4.332;2023-04-01T21:43:04;10.10;99.90
39665;DHT22;26679;50.872;4.332;2023-04-01T21:48:22;10.00;99.90
39665;DHT22;26679;50.872;4.332;2023-04-01T22:03:43;10.00;99.90
39665;DHT22;26679;50.872;4.332;2023-04-01T22:06:22;10.00;99.90
39665;DHT22;26679;50.872;4.332;2023-04-01T22:11:23;10.10;99.90
39665;DHT22;26679;50.872;4.332;2023-04-01T22:16:39;10.20;99.90
39665;DHT22;26679;50.872;4.332;2023-04-01T22:24:06;9.20;99.90
39665;DHT22;26679;50.872;4.332;2023-04-01T22:26:36;10.20;99.90
39665;DHT22;26679;50.872;4.332;2023-04-01T22:29:07;10.30;99.90
39665;DHT22;26679;50.872;4.332;2023-04-01T22:31:37;10.30;99.90
39665;DHT22;26679;50.872;4.332;2023-04-01T22:34:07;10.40;99.90
39665;DHT22;26679;50.872;4.332;2023-04-01T22:36:46;10.40;99.90
39665;DHT22;26679;50.872;4.332;2023-04-01T22:46:51;10.10;99.90
39665;DHT22;26679;50.872;4.332;2023-04-01T22:49:20;10.10;99.90
39665;DHT22;26679;50.872;4.332;2023-04-01T22:51:52;10.10;99.90
39665;DHT22;26679;50.872;4.332;2023-04-01T22:56:57;10.20;99.90
39665;DHT22;26679;50.872;4.332;2023-04-01T23:04:39;10.10;99.90
39665;DHT22;26679;50.872;4.332;2023-04-01T23:07:14;10.20;99.90
39665;DHT22;26679;50.872;4.332;2023-04-01T23:09:46;10.20;99.90
39665;DHT22;26679;50.872;4.332;2023-04-01T23:12:13;10.10;99.90
39665;DHT22;26679;50.872;4.332;2023-04-01T23:17:18;10.10;99.90
39665;DHT22;26679;50.872;4.332;2023-04-01T23:19:47;10.10;99.90
39665;DHT22;26679;50.872;4.332;2023-04-01T23:25:00;10.10;99.90
39665;DHT22;26679;50.872;4.332;2023-04-01T23:29:55;10.00;99.90
39665;DHT22;26679;50.872;4.332;2023-04-01T23:32:24;10.00;99.90
39665;DHT22;26679;50.872;4.332;2023-04-01T23:34:59;10.10;99.90
39665;DHT22;26679;50.872;4.332;2023-04-01T23:37:25;10.00;99.90
39665;DHT22;26679;50.872;4.332;2023-04-01T23:39:55;10.10;99.90
39665;DHT22;26679;50.872;4.332;2023-04-01T23:42:26;10.00;99.90
39665;DHT22;26679;50.872;4.332;2023-04-01T23:44:56;10.10;99.90
39665;DHT22;26679;50.872;4.332;2023-04-01T23:47:27;10.10;99.90
39665;DHT22;26679;50.872;4.332;2023-04-01T23:49:55;10.20;99.90
39665;DHT22;26679;50.872;4.332;2023-04-01T23:52:29;10.10;99.90
39665;DHT22;26679;50.872;4.332;2023-04-01T23:57:32;10.10;99.90
